sensor_id;sensor_type;location;lat;lon;timestamp;temperature;humidity
16867;DHT22;8550;52.596;13.320;2023-03-21T00:01:23;9.30;99.90
16867;DHT22;8550;52.596;13.320;2023-03-21T00:06:25;9.30;99.90
16867;DHT22;8550;52.596;13.320;2023-03-21T00:11:27;9.30;99.90
16867;DHT22;8550;52.596;13.320;2023-03-21T00:16:30;9.20;99.90
16867;DHT22;8550;52.596;13.320;2023-03-21T00:21:33;9.20;99.90
16867;DHT22;8550;52.596;13.320;2023-03-21T00:26:37;9.20;99.90
16867;DHT22;8550;52.596;13.320;2023-03-21T00:31:41;9.20;99.90
16867;DHT22;8550;52.596;13.320;2023-03-21T00:36:43;9.20;99.90
16867;DHT22;8550;52.596;13.320;2023-03-21T00:41:44;9.10;99.90
16867;DHT22;8550;52.596;13.320;2023-03-21T00:46:48;9.10;99.90
16867;DHT22;8550;52.596;13.320;2023-03-21T00:51:50;9.10;99.90
16867;DHT22;8550;52.596;13.320;2023-03-21T00:56:51;9.10;99.90
16867;DHT22;8550;52.596;13.320;2023-03-21T01:01:55;9.10;99.90
16867;DHT22;8550;52.596;13.320;2023-03-21T01:07:00;9.20;99.90
16867;DHT22;8550;52.596;13.320;2023-03-21T01:12:02;9.20;99.90
16867;DHT22;8550;52.596;13.320;2023-03-21T01:17:05;9.20;99.90
16867;DHT22;8550;52.596;13.320;2023-03-21T01:22:07;9.10;99.90
16867;DHT22;8550;52.596;13.320;2023-03-21T01:27:09;9.10;99.90
16867;DHT22;8550;52.596;13.320;2023-03-21T01:32:12;9.10;99.90
16867;DHT22;8550;52.596;13.320;2023-03-21T01:37:14;9.10;99.90
16867;DHT22;8550;52.596;13.320;2023-03-21T01:42:18;9.00;99.90
16867;DHT22;8550;52.596;13.320;2023-03-21T01:47:22;9.00;99.90
16867;DHT22;8550;52.596;13.320;2023-03-21T01:52:27;8.90;99.90
16867;DHT22;8550;52.596;13.320;2023-03-21T01:57:31;8.90;99.90
16867;DHT22;8550;52.596;13.320;2023-03-21T02:02:35;8.90;99.90
16867;DHT22;8550;52.596;13.320;2023-03-21T02:07:39;8.90;99.90
16867;DHT22;8550;52.596;13.320;2023-03-21T02:12:43;8.90;99.90
16867;DHT22;8550;52.596;13.320;2023-03-21T02:17:52;8.80;99.90
16867;DHT22;8550;52.596;13.320;2023-03-21T02:28:34;8.90;99.90
16867;DHT22;8550;52.596;13.320;2023-03-21T02:39:13;8.90;99.90
16867;DHT22;8550;52.596;13.320;2023-03-21T02:44:22;8.80;99.90
16867;DHT22;8550;52.596;13.320;2023-03-21T02:49:28;8.90;99.90
16867;DHT22;8550;52.596;13.320;2023-03-21T02:54:33;8.90;99.90
16867;DHT22;8550;52.596;13.320;2023-03-21T02:59:36;8.80;99.90
16867;DHT22;8550;52.596;13.320;2023-03-21T03:04:38;8.70;99.90
16867;DHT22;8550;52.596;13.320;2023-03-21T03:10:02;8.70;99.90
16867;DHT22;8550;52.596;13.320;2023-03-21T03:15:15;8.60;99.90
16867;DHT22;8550;52.596;13.320;2023-03-21T03:20:27;8.60;99.90
16867;DHT22;8550;52.596;13.320;2023-03-21T03:25:38;8.60;99.90
16867;DHT22;8550;52.596;13.320;2023-03-21T03:30:44;8.60;99.90
16867;DHT22;8550;52.596;13.320;2023-03-21T03:35:47;8.60;99.90
16867;DHT22;8550;52.596;13.320;2023-03-21T03:40:55;8.60;99.90
16867;DHT22;8550;52.596;13.320;2023-03-21T03:46:02;8.50;99.90
16867;DHT22;8550;52.596;13.320;2023-03-21T03:51:07;8.50;99.90
16867;DHT22;8550;52.596;13.320;2023-03-21T03:56:13;8.40;99.90
16867;DHT22;8550;52.596;13.320;2023-03-21T04:01:15;8.40;99.90
16867;DHT22;8550;52.596;13.320;2023-03-21T04:06:18;8.40;99.90
16867;DHT22;8550;52.596;13.320;2023-03-21T04:11:23;8.40;99.90
16867;DHT22;8550;52.596;13.320;2023-03-21T04:16:25;8.50;99.90
16867;DHT22;8550;52.596;13.320;2023-03-21T04:21:27;8.40;99.90
16867;DHT22;8550;52.596;13.320;2023-03-21T04:26:31;8.40;99.90
16867;DHT22;8550;52.596;13.320;2023-03-21T04:31:34;8.40;99.90
16867;DHT22;8550;52.596;13.320;2023-03-21T04:36:37;8.40;99.90
16867;DHT22;8550;52.596;13.320;2023-03-21T04:41:45;8.30;99.90
16867;DHT22;8550;52.596;13.320;2023-03-21T04:46:47;8.40;99.90
16867;DHT22;8550;52.596;13.320;2023-03-21T04:51:49;8.30;99.90
16867;DHT22;8550;52.596;13.320;2023-03-21T04:56:53;8.30;99.90
16867;DHT22;8550;52.596;13.320;2023-03-21T05:01:55;8.20;99.90
16867;DHT22;8550;52.596;13.320;2023-03-21T05:06:58;8.10;99.90
16867;DHT22;8550;52.596;13.320;2023-03-21T05:12:01;8.10;99.90
16867;DHT22;8550;52.596;13.320;2023-03-21T05:17:03;8.10;99.90
16867;DHT22;8550;52.596;13.320;2023-03-21T05:22:06;8.20;99.90
16867;DHT22;8550;52.596;13.320;2023-03-21T05:27:10;8.20;99.90
16867;DHT22;8550;52.596;13.320;2023-03-21T05:32:13;8.30;99.90
16867;DHT22;8550;52.596;13.320;2023-03-21T05:37:15;8.50;99.90
16867;DHT22;8550;52.596;13.320;2023-03-21T05:42:19;8.50;99.90
16867;DHT22;8550;52.596;13.320;2023-03-21T05:47:21;8.60;99.90
16867;DHT22;8550;52.596;13.320;2023-03-21T05:52:23;8.60;99.90
16867;DHT22;8550;52.596;13.320;2023-03-21T05:57:26;8.60;99.90
16867;DHT22;8550;52.596;13.320;2023-03-21T06:02:28;8.70;99.90
16867;DHT22;8550;52.596;13.320;2023-03-21T06:07:30;8.70;99.90
16867;DHT22;8550;52.596;13.320;2023-03-21T06:12:34;8.70;99.90
16867;DHT22;8550;52.596;13.320;2023-03-21T06:17:36;8.60;99.90
16867;DHT22;8550;52.596;13.320;2023-03-21T06:22:38;8.80;99.90
16867;DHT22;8550;52.596;13.320;2023-03-21T06:27:41;8.80;99.90
16867;DHT22;8550;52.596;13.320;2023-03-21T06:32:43;8.90;99.90
16867;DHT22;8550;52.596;13.320;2023-03-21T06:37:45;8.90;99.90
16867;DHT22;8550;52.596;13.320;2023-03-21T06:42:50;8.90;99.90
16867;DHT22;8550;52.596;13.320;2023-03-21T06:47:52;8.90;99.90
16867;DHT22;8550;52.596;13.320;2023-03-21T06:52:53;8.90;99.90
16867;DHT22;8550;52.596;13.320;2023-03-21T06:57:58;9.10;99.90
16867;DHT22;8550;52.596;13.320;2023-03-21T07:03:00;9.00;99.90
16867;DHT22;8550;52.596;13.320;2023-03-21T07:08:02;8.90;99.90
16867;DHT22;8550;52.596;13.320;2023-03-21T07:13:05;8.80;99.90
16867;DHT22;8550;52.596;13.320;2023-03-21T07:18:08;8.80;99.90
16867;DHT22;8550;52.596;13.320;2023-03-21T07:23:10;9.00;99.90
16867;DHT22;8550;52.596;13.320;2023-03-21T07:28:14;8.90;99.90
16867;DHT22;8550;52.596;13.320;2023-03-21T07:33:16;8.90;99.90
16867;DHT22;8550;52.596;13.320;2023-03-21T07:38:18;9.00;99.90
16867;DHT22;8550;52.596;13.320;2023-03-21T07:43:22;9.00;99.90
16867;DHT22;8550;52.596;13.320;2023-03-21T07:48:24;9.10;99.90
16867;DHT22;8550;52.596;13.320;2023-03-21T07:53:26;9.20;99.90
16867;DHT22;8550;52.596;13.320;2023-03-21T07:58:29;9.30;99.90
16867;DHT22;8550;52.596;13.320;2023-03-21T08:03:33;9.20;99.90
16867;DHT22;8550;52.596;13.320;2023-03-21T08:08:36;9.30;99.90
16867;DHT22;8550;52.596;13.320;2023-03-21T08:13:39;9.40;99.90
16867;DHT22;8550;52.596;13.320;2023-03-21T08:18:41;9.50;99.90
16867;DHT22;8550;52.596;13.320;2023-03-21T08:23:43;9.50;99.90
16867;DHT22;8550;52.596;13.320;2023-03-21T08:28:47;9.50;99.90
16867;DHT22;8550;52.596;13.320;2023-03-21T08:33:48;9.50;99.90
16867;DHT22;8550;52.596;13.320;2023-03-21T08:38:54;9.50;99.90
16867;DHT22;8550;52.596;13.320;2023-03-21T08:44:05;9.60;99.90
16867;DHT22;8550;52.596;13.320;2023-03-21T08:49:08;9.60;99.90
16867;DHT22;8550;52.596;13.320;2023-03-21T08:54:17;9.70;99.90
16867;DHT22;8550;52.596;13.320;2023-03-21T08:59:22;9.90;99.90
16867;DHT22;8550;52.596;13.320;2023-03-21T09:04:24;10.10;99.90
16867;DHT22;8550;52.596;13.320;2023-03-21T09:09:26;10.10;99.90
16867;DHT22;8550;52.596;13.320;2023-03-21T09:14:29;10.00;99.90
16867;DHT22;8550;52.596;13.320;2023-03-21T09:19:32;10.10;99.90
16867;DHT22;8550;52.596;13.320;2023-03-21T09:24:35;10.10;99.90
16867;DHT22;8550;52.596;13.320;2023-03-21T09:29:39;10.30;99.90
16867;DHT22;8550;52.596;13.320;2023-03-21T09:34:43;10.50;99.90
16867;DHT22;8550;52.596;13.320;2023-03-21T09:39:45;10.40;99.90
16867;DHT22;8550;52.596;13.320;2023-03-21T09:44:58;10.30;99.90
16867;DHT22;8550;52.596;13.320;2023-03-21T09:50:06;10.30;99.90
16867;DHT22;8550;52.596;13.320;2023-03-21T09:55:16;10.40;99.90
16867;DHT22;8550;52.596;13.320;2023-03-21T10:00:24;10.50;99.90
16867;DHT22;8550;52.596;13.320;2023-03-21T10:05:31;10.50;99.90
16867;DHT22;8550;52.596;13.320;2023-03-21T10:10:36;10.40;99.90
16867;DHT22;8550;52.596;13.320;2023-03-21T10:15:42;10.50;99.90
16867;DHT22;8550;52.596;13.320;2023-03-21T10:20:44;10.50;99.90
16867;DHT22;8550;52.596;13.320;2023-03-21T10:25:48;10.60;99.90
16867;DHT22;8550;52.596;13.320;2023-03-21T10:30:53;10.80;99.90
16867;DHT22;8550;52.596;13.320;2023-03-21T10:35:59;11.00;99.90
16867;DHT22;8550;52.596;13.320;2023-03-21T10:41:02;11.20;99.90
16867;DHT22;8550;52.596;13.320;2023-03-21T10:46:08;11.30;99.90
16867;DHT22;8550;52.596;13.320;2023-03-21T10:51:16;11.40;99.90
16867;DHT22;8550;52.596;13.320;2023-03-21T10:56:22;11.50;99.90
16867;DHT22;8550;52.596;13.320;2023-03-21T11:01:29;11.70;99.90
16867;DHT22;8550;52.596;13.320;2023-03-21T11:06:37;11.90;99.90
16867;DHT22;8550;52.596;13.320;2023-03-21T11:11:44;11.80;99.90
16867;DHT22;8550;52.596;13.320;2023-03-21T11:16:51;11.70;99.90
16867;DHT22;8550;52.596;13.320;2023-03-21T11:21:55;11.70;99.90
16867;DHT22;8550;52.596;13.320;2023-03-21T11:26:58;11.90;99.90
16867;DHT22;8550;52.596;13.320;2023-03-21T11:32:11;12.00;99.90
16867;DHT22;8550;52.596;13.320;2023-03-21T11:37:20;12.00;99.90
16867;DHT22;8550;52.596;13.320;2023-03-21T11:42:27;12.10;99.90
16867;DHT22;8550;52.596;13.320;2023-03-21T11:47:30;12.20;99.90
16867;DHT22;8550;52.596;13.320;2023-03-21T11:52:40;12.20;99.90
16867;DHT22;8550;52.596;13.320;2023-03-21T11:57:50;12.30;99.90
16867;DHT22;8550;52.596;13.320;2023-03-21T12:03:24;12.60;99.90
16867;DHT22;8550;52.596;13.320;2023-03-21T12:08:38;13.00;99.90
16867;DHT22;8550;52.596;13.320;2023-03-21T12:13:53;13.00;99.90
16867;DHT22;8550;52.596;13.320;2023-03-21T12:19:11;12.80;99.90
16867;DHT22;8550;52.596;13.320;2023-03-21T12:24:19;12.80;99.90
16867;DHT22;8550;52.596;13.320;2023-03-21T12:29:39;12.80;99.90
16867;DHT22;8550;52.596;13.320;2023-03-21T12:35:01;13.00;99.90
16867;DHT22;8550;52.596;13.320;2023-03-21T12:40:11;13.20;99.90
16867;DHT22;8550;52.596;13.320;2023-03-21T12:45:20;13.50;99.90
16867;DHT22;8550;52.596;13.320;2023-03-21T12:50:28;13.80;99.90
16867;DHT22;8550;52.596;13.320;2023-03-21T12:55:33;14.10;99.90
16867;DHT22;8550;52.596;13.320;2023-03-21T13:00:39;14.20;99.90
16867;DHT22;8550;52.596;13.320;2023-03-21T13:05:47;13.70;99.90
16867;DHT22;8550;52.596;13.320;2023-03-21T13:10:50;13.50;99.90
16867;DHT22;8550;52.596;13.320;2023-03-21T13:16:01;13.40;99.90
16867;DHT22;8550;52.596;13.320;2023-03-21T13:21:12;13.40;99.90
16867;DHT22;8550;52.596;13.320;2023-03-21T13:26:16;13.60;99.90
16867;DHT22;8550;52.596;13.320;2023-03-21T13:31:19;13.50;99.90
16867;DHT22;8550;52.596;13.320;2023-03-21T13:36:25;13.30;99.90
16867;DHT22;8550;52.596;13.320;2023-03-21T13:41:32;13.30;99.90
16867;DHT22;8550;52.596;13.320;2023-03-21T13:46:42;13.00;99.90
16867;DHT22;8550;52.596;13.320;2023-03-21T13:51:50;12.80;99.90
16867;DHT22;8550;52.596;13.320;2023-03-21T13:56:57;12.80;99.90
16867;DHT22;8550;52.596;13.320;2023-03-21T14:02:00;12.70;99.90
16867;DHT22;8550;52.596;13.320;2023-03-21T14:07:10;12.70;99.90
16867;DHT22;8550;52.596;13.320;2023-03-21T14:12:16;12.80;99.90
16867;DHT22;8550;52.596;13.320;2023-03-21T14:17:23;12.70;99.90
16867;DHT22;8550;52.596;13.320;2023-03-21T14:22:28;12.70;99.90
16867;DHT22;8550;52.596;13.320;2023-03-21T14:27:32;12.60;99.90
16867;DHT22;8550;52.596;13.320;2023-03-21T14:32:35;12.60;99.90
16867;DHT22;8550;52.596;13.320;2023-03-21T14:37:40;12.70;99.90
16867;DHT22;8550;52.596;13.320;2023-03-21T14:42:45;12.90;99.90
16867;DHT22;8550;52.596;13.320;2023-03-21T14:47:55;12.90;99.90
16867;DHT22;8550;52.596;13.320;2023-03-21T14:52:59;13.00;99.90
16867;DHT22;8550;52.596;13.320;2023-03-21T14:58:01;13.10;99.90
16867;DHT22;8550;52.596;13.320;2023-03-21T15:03:04;12.90;99.90
16867;DHT22;8550;52.596;13.320;2023-03-21T15:08:11;12.90;99.90
16867;DHT22;8550;52.596;13.320;2023-03-21T15:13:17;12.90;99.90
16867;DHT22;8550;52.596;13.320;2023-03-21T15:18:26;13.00;99.90
16867;DHT22;8550;52.596;13.320;2023-03-21T15:23:32;12.80;99.90
16867;DHT22;8550;52.596;13.320;2023-03-21T15:28:35;12.70;99.90
16867;DHT22;8550;52.596;13.320;2023-03-21T15:33:37;12.80;99.90
16867;DHT22;8550;52.596;13.320;2023-03-21T15:38:41;12.80;99.90
16867;DHT22;8550;52.596;13.320;2023-03-21T15:43:45;12.90;99.90
16867;DHT22;8550;52.596;13.320;2023-03-21T15:48:47;12.90;99.90
16867;DHT22;8550;52.596;13.320;2023-03-21T15:53:52;12.80;99.90
16867;DHT22;8550;52.596;13.320;2023-03-21T15:58:54;12.80;99.90
16867;DHT22;8550;52.596;13.320;2023-03-21T16:04:01;12.80;99.90
16867;DHT22;8550;52.596;13.320;2023-03-21T16:09:12;12.80;99.90
16867;DHT22;8550;52.596;13.320;2023-03-21T16:14:22;12.70;99.90
16867;DHT22;8550;52.596;13.320;2023-03-21T16:19:26;12.60;99.90
16867;DHT22;8550;52.596;13.320;2023-03-21T16:24:30;12.50;99.90
16867;DHT22;8550;52.596;13.320;2023-03-21T16:29:32;12.60;99.90
16867;DHT22;8550;52.596;13.320;2023-03-21T16:34:34;12.60;99.90
16867;DHT22;8550;52.596;13.320;2023-03-21T16:39:38;12.50;99.90
16867;DHT22;8550;52.596;13.320;2023-03-21T16:44:40;12.60;99.90
16867;DHT22;8550;52.596;13.320;2023-03-21T16:49:42;12.50;99.90
16867;DHT22;8550;52.596;13.320;2023-03-21T16:54:46;12.50;99.90
16867;DHT22;8550;52.596;13.320;2023-03-21T16:59:48;12.50;99.90
16867;DHT22;8550;52.596;13.320;2023-03-21T17:04:50;12.50;99.90
16867;DHT22;8550;52.596;13.320;2023-03-21T17:09:53;12.50;99.90
16867;DHT22;8550;52.596;13.320;2023-03-21T17:14:55;12.50;99.90
16867;DHT22;8550;52.596;13.320;2023-03-21T17:19:57;12.50;99.90
16867;DHT22;8550;52.596;13.320;2023-03-21T17:25:00;12.40;99.90
16867;DHT22;8550;52.596;13.320;2023-03-21T17:30:20;12.40;99.90
16867;DHT22;8550;52.596;13.320;2023-03-21T17:35:23;12.50;99.90
16867;DHT22;8550;52.596;13.320;2023-03-21T17:40:28;12.50;99.90
16867;DHT22;8550;52.596;13.320;2023-03-21T17:45:31;12.40;99.90
16867;DHT22;8550;52.596;13.320;2023-03-21T17:50:33;12.50;99.90
16867;DHT22;8550;52.596;13.320;2023-03-21T17:55:37;12.50;99.90
16867;DHT22;8550;52.596;13.320;2023-03-21T18:00:40;12.50;99.90
16867;DHT22;8550;52.596;13.320;2023-03-21T18:05:42;12.50;99.90
16867;DHT22;8550;52.596;13.320;2023-03-21T18:10:45;12.40;99.90
16867;DHT22;8550;52.596;13.320;2023-03-21T18:15:47;12.40;99.90
16867;DHT22;8550;52.596;13.320;2023-03-21T18:20:50;12.40;99.90
16867;DHT22;8550;52.596;13.320;2023-03-21T18:25:53;12.40;99.90
16867;DHT22;8550;52.596;13.320;2023-03-21T18:30:55;12.50;99.90
16867;DHT22;8550;52.596;13.320;2023-03-21T18:35:57;12.50;99.90
16867;DHT22;8550;52.596;13.320;2023-03-21T18:41:00;12.40;99.90
16867;DHT22;8550;52.596;13.320;2023-03-21T18:46:02;12.40;99.90
16867;DHT22;8550;52.596;13.320;2023-03-21T18:51:05;12.40;99.90
16867;DHT22;8550;52.596;13.320;2023-03-21T18:56:08;12.40;99.90
16867;DHT22;8550;52.596;13.320;2023-03-21T19:01:10;12.40;99.90
16867;DHT22;8550;52.596;13.320;2023-03-21T19:06:12;12.50;99.90
16867;DHT22;8550;52.596;13.320;2023-03-21T19:11:15;12.50;99.90
16867;DHT22;8550;52.596;13.320;2023-03-21T19:16:20;12.50;99.90
16867;DHT22;8550;52.596;13.320;2023-03-21T19:21:23;12.50;99.90
16867;DHT22;8550;52.596;13.320;2023-03-21T19:26:27;12.50;99.90
16867;DHT22;8550;52.596;13.320;2023-03-21T19:31:28;12.40;99.90
16867;DHT22;8550;52.596;13.320;2023-03-21T19:36:30;12.30;99.90
16867;DHT22;8550;52.596;13.320;2023-03-21T19:41:34;12.30;99.90
16867;DHT22;8550;52.596;13.320;2023-03-21T19:46:36;12.30;99.90
16867;DHT22;8550;52.596;13.320;2023-03-21T19:51:38;12.10;99.90
16867;DHT22;8550;52.596;13.320;2023-03-21T19:56:41;12.00;99.90
16867;DHT22;8550;52.596;13.320;2023-03-21T20:01:43;11.90;99.90
16867;DHT22;8550;52.596;13.320;2023-03-21T20:06:46;11.80;99.90
16867;DHT22;8550;52.596;13.320;2023-03-21T20:11:51;11.70;99.90
16867;DHT22;8550;52.596;13.320;2023-03-21T20:16:55;11.70;99.90
16867;DHT22;8550;52.596;13.320;2023-03-21T20:21:57;11.60;99.90
16867;DHT22;8550;52.596;13.320;2023-03-21T20:27:00;11.60;99.90
16867;DHT22;8550;52.596;13.320;2023-03-21T20:32:02;11.50;99.90
16867;DHT22;8550;52.596;13.320;2023-03-21T20:37:04;11.40;99.90
16867;DHT22;8550;52.596;13.320;2023-03-21T20:42:07;11.40;99.90
16867;DHT22;8550;52.596;13.320;2023-03-21T20:47:09;11.30;99.90
16867;DHT22;8550;52.596;13.320;2023-03-21T20:52:11;11.20;99.90
16867;DHT22;8550;52.596;13.320;2023-03-21T20:57:16;11.20;99.90
16867;DHT22;8550;52.596;13.320;2023-03-21T21:02:19;11.10;99.90
16867;DHT22;8550;52.596;13.320;2023-03-21T21:07:22;11.10;99.90
16867;DHT22;8550;52.596;13.320;2023-03-21T21:12:28;11.00;99.90
16867;DHT22;8550;52.596;13.320;2023-03-21T21:17:30;11.00;99.90
16867;DHT22;8550;52.596;13.320;2023-03-21T21:22:33;11.00;99.90
16867;DHT22;8550;52.596;13.320;2023-03-21T21:27:36;10.90;99.90
16867;DHT22;8550;52.596;13.320;2023-03-21T21:32:38;10.90;99.90
16867;DHT22;8550;52.596;13.320;2023-03-21T21:37:41;10.90;99.90
16867;DHT22;8550;52.596;13.320;2023-03-21T21:42:44;11.00;99.90
16867;DHT22;8550;52.596;13.320;2023-03-21T21:47:46;10.90;99.90
16867;DHT22;8550;52.596;13.320;2023-03-21T21:52:48;10.90;99.90
16867;DHT22;8550;52.596;13.320;2023-03-21T21:57:55;10.90;99.90
16867;DHT22;8550;52.596;13.320;2023-03-21T22:02:58;10.80;99.90
16867;DHT22;8550;52.596;13.320;2023-03-21T22:08:00;10.90;99.90
16867;DHT22;8550;52.596;13.320;2023-03-21T22:13:03;10.90;99.90
16867;DHT22;8550;52.596;13.320;2023-03-21T22:18:06;10.90;99.90
16867;DHT22;8550;52.596;13.320;2023-03-21T22:23:09;10.80;99.90
16867;DHT22;8550;52.596;13.320;2023-03-21T22:28:12;10.70;99.90
16867;DHT22;8550;52.596;13.320;2023-03-21T22:33:14;10.80;99.90
16867;DHT22;8550;52.596;13.320;2023-03-21T22:38:16;10.80;99.90
16867;DHT22;8550;52.596;13.320;2023-03-21T22:43:25;10.80;99.90
16867;DHT22;8550;52.596;13.320;2023-03-21T22:48:28;10.80;99.90
16867;DHT22;8550;52.596;13.320;2023-03-21T22:53:30;10.70;99.90
16867;DHT22;8550;52.596;13.320;2023-03-21T22:58:34;10.80;99.90
16867;DHT22;8550;52.596;13.320;2023-03-21T23:03:35;10.70;99.90
16867;DHT22;8550;52.596;13.320;2023-03-21T23:08:37;10.80;99.90
16867;DHT22;8550;52.596;13.320;2023-03-21T23:13:40;10.70;99.90
16867;DHT22;8550;52.596;13.320;2023-03-21T23:18:45;10.70;99.90
16867;DHT22;8550;52.596;13.320;2023-03-21T23:23:48;10.70;99.90
16867;DHT22;8550;52.596;13.320;2023-03-21T23:28:51;10.60;99.90
16867;DHT22;8550;52.596;13.320;2023-03-21T23:33:56;10.60;99.90
16867;DHT22;8550;52.596;13.320;2023-03-21T23:38:58;10.70;99.90
16867;DHT22;8550;52.596;13.320;2023-03-21T23:44:02;10.70;99.90
16867;DHT22;8550;52.596;13.320;2023-03-21T23:49:04;10.60;99.90
16867;DHT22;8550;52.596;13.320;2023-03-21T23:54:06;10.50;99.90
16867;DHT22;8550;52.596;13.320;2023-03-21T23:59:09;10.40;99.90
